ケアンズ の空港の天気 - METARとTAF

ケアンズ国際空港 ( YBCS / CNS ) - オーストラリア クイーンズランド州ケアンズ
飛行場実況気象(Metar)
観測時間10/21 12:00 AEST (10/21 02:00 UTC)
風向・風速北東 5m/s
視程10km以上
天気現象
なし
気温30℃
湿度55%
気圧1012hPa
METARYBCS 210200Z AUTO 05009KT 9999 // NCD 30/20 Q1012 NOSIG
過去の天気等 Google飛行場航空写真 Wunderground天気予報

過去48時間のMETAR

飛行場予報(TAF)
発表時間: 10/21 09:18 AEST (10/20 23:18 UTC)
予報対象時間: 21日10時 AEST ~ 22日10時 AEST
風向・風速北東 4m/s
視程10km以上
少しの雲 雲底高度 910m
21日19時 AEST から
風向・風速不定 2m/s
視程10km以上
全天の4割程度の雲 雲底高度 760m
TAF YBCS 202318Z 2100/2200 04008KT 9999 FEW030
FM210900 VRB03KT 9999 SCT025